MST,Max TemperatureF,Mean TemperatureF,Min TemperatureF,Max Dew PointF,MeanDew PointF,Min DewpointF,Max Humidity, Mean Humidity, Min Humidity, Max Sea Level PressureIn, Mean Sea Level PressureIn, Min Sea Level PressureIn, Max VisibilityMiles, Mean VisibilityMiles, Min VisibilityMiles, Max Wind SpeedMPH, Mean Wind SpeedMPH, Max Gust SpeedMPH,PrecipitationIn, CloudCover, Events, WindDirDegrees
2012-9-1,95,83,71,58,50,36,59,38,14,29.97,29.91,29.84,10,10,10,17,6,16,0.00,0,,214
2012-9-2,93,82,72,58,53,45,55,39,18,30.07,29.92,29.84,10,10,10,18,8,25,0.00,1,,260
2012-9-3,89,76,64,63,57,53,94,57,33,30.30,30.07,29.92,10,10,6,20,8,30,0.12,3,Rain-Thunderstorm,274
2012-9-4,82,73,64,63,61,60,94,72,48,30.24,30.07,29.94,10,10,10,16,8,17,0.02,6,Rain-Thunderstorm,271
2012-9-5,84,76,68,64,63,61,88,70,45,30.18,30.02,29.88,10,10,6,13,8,16,0.13,7,Rain-Thunderstorm,273
2012-9-6,86,78,69,66,62,57,83,66,40,30.08,29.96,29.89,10,10,10,15,6,18,0.00,5,Rain-Thunderstorm,274
2012-9-7,78,71,64,66,63,61,94,82,54,30.17,30.03,29.96,10,9,1,15,4,24,0.00,6,Rain-Thunderstorm,268
2012-9-8,,,,,,,,,,,,,,,,,,,,,,
2012-9-9,,,,,,,,,,,,,,,,,,,,,,
2012-9-10,78,71,64,63,59,57,94,72,47,30.19,30.06,29.97,10,10,7,15,4,20,0.48,6,Rain-Thunderstorm,229
2012-9-11,77,70,62,63,60,55,94,77,50,30.17,30.03,29.95,10,10,10,13,4,,1.08,6,Rain-Thunderstorm,358
2012-9-12,78,70,62,63,59,55,94,66,47,30.04,29.99,29.93,10,10,10,12,3,,0.00,2,,285
2012-9-13,82,72,62,63,56,49,82,56,37,30.22,30.08,29.98,10,10,10,20,7,23,0.05,5,Rain-Thunderstorm,115
2012-9-14,73,66,59,49,47,46,64,53,38,30.16,30.12,30.06,10,10,10,17,12,24,0.00,2,,122
2012-9-15,77,64,51,47,44,38,83,48,26,30.18,30.12,30.07,10,10,10,12,8,,0.00,0,,114
2012-9-16,84,72,59,45,39,36,51,32,18,30.11,30.05,29.99,,,,15,6,,0.00,0,,255
2012-9-17,82,72,62,49,45,38,56,39,28,30.05,29.99,29.94,10,10,10,12,9,24,0.00,1,,274
2012-9-18,86,75,64,50,43,35,56,36,17,30.07,30.01,29.96,10,10,10,12,8,,0.00,1,,229
2012-9-19,87,74,62,43,39,36,43,29,18,30.06,30.00,29.96,10,10,10,9,5,,0.00,2,,201
2012-9-20,87,76,66,45,40,37,43,28,17,30.02,29.96,29.91,10,10,10,12,5,,0.00,4,,255
2012-9-21,89,79,69,43,36,34,33,23,14,30.10,29.94,29.86,10,10,10,10,7,,0.00,3,,255
2012-9-22,91,80,70,43,36,30,35,23,12,30.01,29.96,29.92,10,10,10,10,6,,0.00,2,,195
2012-9-23,91,78,64,39,33,28,38,22,11,30.20,30.00,29.96,10,10,10,14,5,18,0.00,0,,208
2012-9-24,87,78,69,45,39,37,36,26,17,30.01,29.94,29.89,10,10,10,20,9,,0.00,2,,266
2012-9-25,84,74,64,45,41,39,45,32,20,29.94,29.88,29.83,10,10,10,18,7,25,0.00,1,,263
2012-9-26,84,73,62,50,42,36,59,35,18,29.91,29.88,29.83,10,10,10,17,8,22,0.00,2,,227
2012-9-27,80,71,62,48,45,41,52,38,24,29.99,29.95,29.91,10,10,10,14,5,,0.00,6,,259
2012-9-28,70,62,55,55,49,42,82,57,38,30.11,29.98,29.90,10,10,7,12,7,,0.11,6,Rain,197
2012-9-29,81,68,54,52,47,41,86,51,26,30.09,30.01,29.95,10,10,10,10,5,,0.00,0,,228
2012-9-30,84,74,63,46,38,31,46,29,14,30.02,29.96,29.90,10,10,10,13,7,18,0.00,0,,265